Time;durP1;ratioP1;P1;durP2;ratioP2;P2;SDS_P1;SDS_P2;PMS_P1;PMS_P2;Temp;Humidity;BMP_temperature;BMP_pressure;BME280_temperature;BME280_humidity;BME280_pressure;Samples;Min_cycle;Max_cycle;Signal;HPM_P1;HPM_P2
2021/08/09 00:01:10;;;;;;;4.95;0.90;;;;;;;16.38;74.18;99710.25;1762576;80;21041;-54
2021/08/09 00:03:37;;;;;;;1.00;0.78;;;;;;;16.38;74.27;99708.02;1758293;80;21055;-54
2021/08/09 00:06:03;;;;;;;7.80;1.05;;;;;;;16.38;74.26;99708.89;1762685;79;21080;-55
2021/08/09 00:08:31;;;;;;;5.83;0.90;;;;;;;16.40;74.17;99702.86;1757894;80;21052;-53
2021/08/09 00:10:58;;;;;;;6.97;1.00;;;;;;;16.38;74.23;99702.09;1760278;80;21148;-53
2021/08/09 00:13:26;;;;;;;8.05;1.05;;;;;;;16.38;74.28;99705.30;1758621;80;21103;-52
2021/08/09 00:15:54;;;;;;;1.40;0.80;;;;;;;16.35;74.31;99698.23;1760857;80;21059;-55
2021/08/09 00:18:24;;;;;;;5.37;0.90;;;;;;;16.33;74.30;99693.92;1756880;80;21100;-53
2021/08/09 00:20:53;;;;;;;1.52;0.68;;;;;;;16.30;74.20;99700.43;1759414;80;21047;-54
2021/08/09 00:23:21;;;;;;;3.02;0.75;;;;;;;16.26;74.19;99698.41;1755877;80;21458;-55
2021/08/09 00:25:47;;;;;;;2.37;1.00;;;;;;;16.22;74.25;99697.41;1756991;80;21123;-53
2021/08/09 00:28:15;;;;;;;1.70;0.70;;;;;;;16.22;74.35;99701.48;1757283;80;21577;-55
2021/08/09 00:30:43;;;;;;;2.02;0.70;;;;;;;16.22;74.43;99704.19;1755290;80;21522;-55
2021/08/09 00:33:12;;;;;;;1.42;0.80;;;;;;;16.23;74.53;99696.42;1754231;80;21184;-55
2021/08/09 00:35:38;;;;;;;1.80;0.70;;;;;;;16.23;74.52;99698.66;1746642;80;21696;-54
2021/08/09 00:38:06;;;;;;;3.08;0.93;;;;;;;16.24;74.47;99694.97;1757460;80;22285;-53
2021/08/09 00:40:32;;;;;;;7.12;0.82;;;;;;;16.23;74.47;99698.66;1759660;80;21112;-53
2021/08/09 00:43:02;;;;;;;5.15;0.95;;;;;;;16.22;74.47;99690.13;1758797;80;21064;-54
2021/08/09 00:45:29;;;;;;;3.92;0.90;;;;;;;16.21;74.54;99694.30;1756252;80;21589;-53
2021/08/09 00:47:56;;;;;;;3.75;0.70;;;;;;;16.20;74.70;99689.84;1759792;80;21170;-54
2021/08/09 00:50:22;;;;;;;4.75;0.70;;;;;;;16.20;74.71;99688.00;1761491;80;21637;-55
2021/08/09 00:52:50;;;;;;;2.27;0.72;;;;;;;16.20;74.52;99689.84;1754375;80;21079;-55
2021/08/09 00:55:18;;;;;;;2.20;0.70;;;;;;;16.18;74.56;99687.73;1761846;80;21119;-54
2021/08/09 00:57:45;;;;;;;1.05;0.90;;;;;;;16.17;74.64;99689.57;1765442;80;21446;-55
2021/08/09 01:00:13;;;;;;;3.33;0.85;;;;;;;16.17;74.76;99688.70;1764926;80;21091;-55
2021/08/09 01:02:43;;;;;;;1.47;0.70;;;;;;;16.17;74.91;99692.77;1763381;80;21004;-54
2021/08/09 01:05:11;;;;;;;1.40;0.80;;;;;;;16.16;74.73;99687.83;1762929;80;21044;-54
2021/08/09 01:08:10;;;;;;;0.90;0.85;;;;;;;16.15;74.71;99683.89;1762699;80;21127;-54
2021/08/09 01:11:02;;;;;;;1.10;0.80;;;;;;;16.13;74.76;99684.48;1761317;80;21049;-55
2021/08/09 01:13:50;;;;;;;;;;;;;;;16.10;74.69;99683.34;1761272;80;22320;-55
2021/08/09 01:16:17;;;;;;;1.35;0.68;;;;;;;16.08;74.87;99680.73;1764220;80;20524;-54
2021/08/09 01:18:43;;;;;;;3.30;0.78;;;;;;;16.06;74.84;99676.41;1765241;78;21366;-53
2021/08/09 01:21:11;;;;;;;2.25;0.90;;;;;;;16.05;74.70;99677.38;1763791;80;21484;-54
2021/08/09 01:24:11;;;;;;;2.08;1.30;;;;;;;16.04;74.68;99672.92;1761172;79;21108;-55
2021/08/09 01:26:51;;;;;;;1.70;0.90;;;;;;;16.02;74.71;99677.59;1763041;80;21782;-53
2021/08/09 01:29:24;;;;;;;3.12;1.10;;;;;;;15.98;74.61;99673.37;1737828;80;21100;-55
2021/08/09 01:31:51;;;;;;;1.90;1.00;;;;;;;15.96;74.67;99674.84;1770963;78;21419;-55
2021/08/09 01:34:19;;;;;;;0.90;0.80;;;;;;;15.94;74.71;99669.12;1769209;80;21074;-55
2021/08/09 01:36:49;;;;;;;1.15;0.80;;;;;;;15.92;74.85;99672.44;1762790;80;20957;-54
2021/08/09 01:39:16;;;;;;;2.55;0.90;;;;;;;15.90;74.97;99671.22;1764924;80;21775;-55
2021/08/09 01:41:44;;;;;;;1.22;1.05;;;;;;;15.89;75.08;99669.47;1726978;81;21114;-54
2021/08/09 01:44:10;;;;;;;1.00;0.90;;;;;;;15.88;75.02;99671.31;1744945;80;21605;-54
2021/08/09 01:46:37;;;;;;;1.60;0.80;;;;;;;15.87;74.94;99668.70;1764442;80;21075;-55
2021/08/09 01:49:05;;;;;;;2.05;0.90;;;;;;;15.86;74.93;99666.97;1766681;80;21324;-54
2021/08/09 01:51:33;;;;;;;0.90;0.80;;;;;;;15.86;74.87;99674.63;1756409;80;21532;-62
2021/08/09 01:54:01;;;;;;;1.00;0.90;;;;;;;15.86;74.80;99675.11;1738352;80;21109;-59
2021/08/09 01:56:28;;;;;;;1.70;0.90;;;;;;;15.84;74.59;99672.50;1738941;81;22038;-62
2021/08/09 01:58:54;;;;;;;1.15;1.05;;;;;;;15.81;74.46;99674.09;1742124;81;21546;-60
2021/08/09 02:01:23;;;;;;;4.22;0.90;;;;;;;15.78;74.41;99678.38;1758128;80;20929;-58
2021/08/09 02:03:49;;;;;;;0.90;0.88;;;;;;;15.76;74.48;99673.53;1757344;80;21745;-57
2021/08/09 02:06:16;;;;;;;1.02;0.80;;;;;;;15.74;74.45;99678.67;1759425;80;20917;-62
2021/08/09 02:08:42;;;;;;;1.00;0.85;;;;;;;15.70;74.54;99678.05;1758056;80;20973;-57
2021/08/09 02:11:16;;;;;;;1.57;0.90;;;;;;;15.67;74.51;99674.17;1756175;80;21315;-62
2021/08/09 02:13:57;;;;;;;1.15;0.90;;;;;;;15.67;74.67;99681.45;1757578;80;21054;-54
2021/08/09 02:16:36;;;;;;;1.30;0.93;;;;;;;15.65;74.54;99680.19;1740651;80;22025;-61
2021/08/09 02:19:10;;;;;;;3.15;1.20;;;;;;;15.62;74.51;99675.48;1731143;80;20977;-56
2021/08/09 02:21:57;;;;;;;3.15;0.80;;;;;;;15.58;74.39;99676.66;1737677;81;21343;-62
2021/08/09 02:24:31;;;;;;;5.33;1.45;;;;;;;15.55;74.60;99683.68;1714560;81;21046;-61
2021/08/09 02:27:03;;;;;;;2.52;0.90;;;;;;;15.52;74.64;99682.88;1738265;81;21352;-62
2021/08/09 02:29:32;;;;;;;3.40;0.82;;;;;;;15.52;74.79;99684.72;1720643;81;21526;-58
2021/08/09 02:31:58;;;;;;;0.75;0.70;;;;;;;15.52;74.76;99680.16;1759556;80;21041;-54
2021/08/09 02:34:32;;;;;;;2.30;1.98;;;;;;;15.51;74.69;99689.27;1737680;80;21017;-60
2021/08/09 02:36:54;;;;;;;4.22;0.93;;;;;;;15.52;74.68;99697.80;1753364;80;20922;-59
2021/08/09 02:39:21;;;;;;;6.97;1.20;;;;;;;15.51;74.65;99690.63;1758972;80;20930;-63
2021/08/09 02:41:49;;;;;;;1.42;1.32;;;;;;;15.49;74.72;99687.63;1734569;80;21039;-61
2021/08/09 02:44:16;;;;;;;2.92;1.62;;;;;;;15.48;74.71;99698.13;1753500;80;21582;-59
2021/08/09 02:46:43;;;;;;;1.65;1.00;;;;;;;15.45;74.90;99692.91;1754064;80;21053;-59
2021/08/09 02:49:11;;;;;;;3.52;1.10;;;;;;;15.43;74.93;99693.49;1759844;80;21080;-59
2021/08/09 02:51:39;;;;;;;1.37;0.98;;;;;;;15.44;75.13;99693.88;1767499;80;21323;-62
2021/08/09 02:54:05;;;;;;;1.05;0.95;;;;;;;15.44;74.88;99689.81;1765612;80;21119;-56
2021/08/09 02:56:32;;;;;;;2.65;1.05;;;;;;;15.44;75.05;99695.23;1760378;80;20993;-54
2021/08/09 02:59:00;;;;;;;3.83;1.25;;;;;;;15.43;75.21;99693.49;1765296;80;21096;-57
2021/08/09 03:01:27;;;;;;;1.50;0.88;;;;;;;15.44;75.41;99691.16;1742243;80;21006;-57
2021/08/09 03:03:58;;;;;;;1.30;1.00;;;;;;;15.45;75.52;99697.84;1767453;80;21123;-61
2021/08/09 03:06:28;;;;;;;2.15;1.10;;;;;;;15.47;75.48;99695.91;1765092;80;21147;-57
2021/08/09 03:08:57;;;;;;;1.32;0.98;;;;;;;15.48;75.38;99703.03;1764461;80;21092;-61
2021/08/09 03:11:24;;;;;;;6.30;1.10;;;;;;;15.48;75.76;99702.20;1763988;80;21546;-62
2021/08/09 03:13:51;;;;;;;1.80;0.93;;;;;;;15.48;75.76;99702.20;1761197;80;21514;-60
2021/08/09 03:16:18;;;;;;;1.80;0.90;;;;;;;15.50;75.66;99704.30;1763573;78;21000;-62
2021/08/09 03:18:45;;;;;;;2.75;0.90;;;;;;;15.51;75.71;99712.81;1760815;80;21598;-60
2021/08/09 03:24:01;;;;;;;2.77;1.00;;;;;;;15.55;75.87;99708.97;1795223;78;24641;-59
2021/08/09 03:26:29;;;;;;;3.20;1.40;;;;;;;15.51;75.96;99709.62;1765079;80;21499;-62
2021/08/09 03:28:56;;;;;;;7.20;1.37;;;;;;;15.51;76.08;99715.53;1767680;80;21752;-61
2021/08/09 03:31:23;;;;;;;1.25;1.00;;;;;;;15.52;76.19;99715.43;1766721;80;21132;-64
2021/08/09 03:33:49;;;;;;;1.87;0.80;;;;;;;15.54;76.37;99719.43;1766574;79;20961;-63
2021/08/09 03:36:16;;;;;;;4.30;1.00;;;;;;;15.60;76.58;99723.06;1766487;80;21000;-61
2021/08/09 03:38:43;;;;;;;3.37;0.90;;;;;;;15.64;76.67;99726.45;1714288;81;21584;-56
2021/08/09 03:41:10;;;;;;;3.70;0.90;;;;;;;15.68;76.75;99723.89;1698133;82;21564;-59
2021/08/09 03:43:37;;;;;;;1.72;1.07;;;;;;;15.73;76.92;99720.39;1717252;81;21020;-60
2021/08/09 03:48:36;;;;;;;3.37;1.00;;;;;;;15.88;77.16;99716.11;1868995;75;24609;-61
2021/08/09 03:51:03;;;;;;;5.45;1.20;;;;;;;15.91;77.26;99706.85;1832867;77;21039;-60
2021/08/09 03:53:31;;;;;;;2.50;1.07;;;;;;;15.96;77.34;99699.27;1839878;77;20983;-61
2021/08/09 03:55:58;;;;;;;1.55;1.42;;;;;;;16.04;77.51;99706.86;1836460;77;20963;-61
2021/08/09 03:58:24;;;;;;;2.83;1.10;;;;;;;16.10;77.62;99714.56;1831398;77;20952;-60
2021/08/09 04:00:50;;;;;;;2.17;1.05;;;;;;;16.18;77.69;99714.88;1835289;77;21484;-60
2021/08/09 04:03:17;;;;;;;2.42;1.10;;;;;;;16.24;77.75;99719.41;1838261;77;21010;-61
2021/08/09 04:05:43;;;;;;;2.72;0.95;;;;;;;16.33;77.79;99714.29;1837484;77;21129;-57
2021/08/09 04:08:10;;;;;;;1.00;0.90;;;;;;;16.40;77.82;99715.09;1836997;77;20879;-62
2021/08/09 04:10:38;;;;;;;4.50;1.20;;;;;;;16.48;77.92;99711.32;1833449;77;20965;-60
2021/08/09 04:13:04;;;;;;;2.30;1.10;;;;;;;16.61;78.28;99708.59;1841653;77;20991;-63
2021/08/09 04:15:32;;;;;;;1.95;1.20;;;;;;;16.74;78.59;99701.28;1835369;77;21270;-62
2021/08/09 04:18:00;;;;;;;3.58;1.10;;;;;;;16.85;78.71;99699.97;1840135;77;21104;-62
2021/08/09 04:20:27;;;;;;;3.62;1.65;;;;;;;16.95;78.74;99698.79;1836492;77;21332;-63
2021/08/09 04:22:53;;;;;;;6.87;1.92;;;;;;;17.07;78.77;99701.09;1844730;77;21221;-62
2021/08/09 04:25:21;;;;;;;3.45;1.30;;;;;;;17.22;78.87;99707.59;1836816;77;21051;-63
2021/08/09 04:27:48;;;;;;;3.17;1.30;;;;;;;17.35;78.80;99703.45;1840721;77;21497;-63
2021/08/09 04:30:15;;;;;;;2.90;1.55;;;;;;;17.48;78.76;99697.91;1837666;77;21499;-60
2021/08/09 04:32:43;;;;;;;4.45;2.08;;;;;;;17.66;78.76;99699.24;1819367;77;21719;-62
2021/08/09 04:35:12;;;;;;;3.55;1.80;;;;;;;17.83;78.66;99696.55;1817909;77;21032;-63
2021/08/09 04:37:40;;;;;;;2.45;2.25;;;;;;;17.96;78.40;99695.45;1812499;77;21080;-60
2021/08/09 04:40:08;;;;;;;3.05;2.17;;;;;;;18.09;77.82;99694.86;1817588;77;21025;-56
2021/08/09 04:42:36;;;;;;;4.62;2.42;;;;;;;18.34;77.43;99697.84;1819321;77;21124;-64
2021/08/09 04:45:05;;;;;;;2.20;1.92;;;;;;;18.51;77.03;99695.97;1798498;78;21012;-63
2021/08/09 04:47:33;;;;;;;2.02;1.92;;;;;;;18.67;76.51;99694.24;1821290;77;20898;-62
2021/08/09 04:50:00;;;;;;;1.80;1.70;;;;;;;18.83;75.83;99701.52;1822103;77;20906;-59
2021/08/09 04:52:26;;;;;;;3.30;1.72;;;;;;;18.96;75.19;99705.47;1824673;77;20938;-63
2021/08/09 04:54:53;;;;;;;2.58;2.10;;;;;;;19.06;74.78;99712.36;1824502;77;21426;-62
2021/08/09 04:57:19;;;;;;;2.92;2.40;;;;;;;19.15;74.51;99711.59;1816903;77;21379;-59
2021/08/09 04:59:45;;;;;;;3.17;2.15;;;;;;;19.23;74.30;99715.41;1819735;77;21451;-60
2021/08/09 05:02:12;;;;;;;3.45;2.35;;;;;;;19.33;73.97;99722.81;1818277;77;20922;-57
2021/08/09 05:04:38;;;;;;;3.15;2.62;;;;;;;19.42;73.45;99731.59;1818904;78;20918;-61
2021/08/09 05:07:05;;;;;;;2.95;2.47;;;;;;;19.50;73.01;99723.15;1818289;77;21338;-61
2021/08/09 05:09:33;;;;;;;2.33;2.15;;;;;;;19.60;72.72;99713.67;1817798;77;20949;-62
2021/08/09 05:12:00;;;;;;;2.55;1.80;;;;;;;19.70;72.28;99714.62;1819893;77;21397;-55
2021/08/09 05:14:27;;;;;;;3.75;2.58;;;;;;;19.82;72.11;99712.70;1821088;77;20926;-55
2021/08/09 05:16:54;;;;;;;5.37;2.35;;;;;;;19.95;71.69;99714.72;1818400;77;20930;-55
2021/08/09 05:19:21;;;;;;;2.65;2.05;;;;;;;20.06;71.52;99720.11;1812100;77;21136;-55
2021/08/09 05:21:48;;;;;;;2.20;2.00;;;;;;;20.19;71.48;99708.95;1819002;77;20870;-55
2021/08/09 05:24:14;;;;;;;2.37;2.05;;;;;;;20.30;71.07;99715.20;1815462;77;20891;-55
2021/08/09 05:26:41;;;;;;;3.87;2.15;;;;;;;20.42;70.96;99713.76;1817998;77;20890;-55
2021/08/09 05:29:07;;;;;;;2.83;1.82;;;;;;;20.52;70.31;99719.64;1816949;77;20922;-56
2021/08/09 05:31:34;;;;;;;3.40;1.50;;;;;;;20.62;69.85;99719.68;1815490;77;21676;-57
2021/08/09 05:34:01;;;;;;;2.20;2.00;;;;;;;20.73;69.62;99715.48;1811766;77;21017;-56
2021/08/09 05:36:29;;;;;;;2.70;1.22;;;;;;;20.83;68.92;99712.28;1812317;77;21601;-57
2021/08/09 05:38:56;;;;;;;4.12;1.60;;;;;;;20.95;68.74;99707.03;1814382;77;21032;-56
2021/08/09 05:41:23;;;;;;;2.02;1.80;;;;;;;21.06;68.37;99703.32;1813664;77;21382;-56
2021/08/09 05:43:51;;;;;;;2.75;2.25;;;;;;;21.17;67.82;99693.66;1813243;77;21121;-55
2021/08/09 05:46:18;;;;;;;3.30;2.05;;;;;;;21.31;67.50;99697.33;1817393;77;21488;-57
2021/08/09 05:48:44;;;;;;;3.30;2.45;;;;;;;21.43;67.12;99693.45;1785079;77;21049;-56
2021/08/09 05:51:11;;;;;;;1.60;1.47;;;;;;;21.56;66.60;99704.60;1814198;77;21014;-55
2021/08/09 05:53:38;;;;;;;2.17;2.08;;;;;;;21.65;66.24;99705.11;1809080;77;21040;-56
2021/08/09 05:56:06;;;;;;;2.85;1.65;;;;;;;21.74;66.09;99706.97;1811754;77;21076;-57
2021/08/09 05:58:34;;;;;;;4.15;1.95;;;;;;;21.81;65.05;99702.63;1812515;77;21741;-55
2021/08/09 06:01:01;;;;;;;4.45;2.30;;;;;;;21.90;64.36;99710.84;1813362;78;21087;-56
2021/08/09 06:03:29;;;;;;;3.22;2.52;;;;;;;21.98;64.05;99709.27;1792932;78;21087;-55
2021/08/09 06:06:00;;;;;;;2.60;2.25;;;;;;;22.07;63.99;99713.36;1817509;77;21441;-55
2021/08/09 06:08:28;;;;;;;2.35;1.40;;;;;;;22.17;63.87;99715.58;1814486;77;21124;-55
2021/08/09 06:10:58;;;;;;;1.60;1.27;;;;;;;22.26;63.44;99716.06;1817614;77;20957;-55
2021/08/09 06:13:26;;;;;;;3.62;1.10;;;;;;;22.35;61.99;99717.55;1818004;77;21053;-57
2021/08/09 06:15:54;;;;;;;4.28;1.20;;;;;;;22.43;60.81;99714.41;1818377;77;21458;-55
2021/08/09 06:18:22;;;;;;;3.87;1.70;;;;;;;22.53;59.58;99724.84;1817948;77;21087;-55
2021/08/09 06:20:49;;;;;;;1.60;1.25;;;;;;;22.62;59.06;99732.68;1818632;78;21959;-55
2021/08/09 06:23:16;;;;;;;1.60;0.90;;;;;;;22.67;59.12;99723.47;1812401;77;21328;-59
2021/08/09 06:25:44;;;;;;;1.17;0.70;;;;;;;22.74;59.11;99719.14;1812583;77;21093;-56
2021/08/09 06:28:10;;;;;;;1.70;0.88;;;;;;;22.82;58.05;99727.47;1813673;77;21072;-59
2021/08/09 06:30:37;;;;;;;1.62;0.60;;;;;;;22.91;57.43;99727.06;1813115;77;21542;-63
2021/08/09 06:33:04;;;;;;;2.60;0.90;;;;;;;22.98;57.18;99730.41;1813825;77;21608;-63
2021/08/09 06:35:31;;;;;;;1.62;0.90;;;;;;;23.06;56.96;99720.03;1815258;77;21001;-61
2021/08/09 06:37:58;;;;;;;2.35;1.00;;;;;;;23.12;56.17;99713.95;1732069;80;21071;-60
2021/08/09 06:40:25;;;;;;;3.62;1.00;;;;;;;23.20;55.99;99722.78;1776613;80;21005;-64
2021/08/09 06:42:52;;;;;;;5.37;0.80;;;;;;;23.25;55.90;99721.79;1765362;79;21063;-58
2021/08/09 06:45:23;;;;;;;6.28;1.20;;;;;;;23.29;56.09;99714.98;1776587;80;21060;-63
2021/08/09 06:47:49;;;;;;;4.70;1.20;;;;;;;23.34;56.55;99724.47;1783508;79;20958;-64
2021/08/09 06:50:16;;;;;;;3.37;0.98;;;;;;;23.40;56.02;99719.72;1787674;79;21467;-64
2021/08/09 06:52:42;;;;;;;2.05;0.80;;;;;;;23.47;55.67;99716.37;1763571;79;21061;-66
2021/08/09 06:55:10;;;;;;;3.55;0.80;;;;;;;23.55;55.49;99718.72;1760120;80;21027;-62
2021/08/09 06:57:37;;;;;;;3.42;0.90;;;;;;;23.61;54.10;99719.45;1747866;79;21586;-58
2021/08/09 07:00:05;;;;;;;2.47;1.00;;;;;;;23.67;54.07;99715.20;1762277;80;21026;-61
2021/08/09 07:02:32;;;;;;;2.65;1.00;;;;;;;23.74;54.18;99714.40;1749442;79;21052;-61
2021/08/09 07:04:59;;;;;;;4.10;1.10;;;;;;;23.83;54.56;99719.45;1750002;79;21043;-64
2021/08/09 07:07:25;;;;;;;2.80;1.45;;;;;;;23.91;55.11;99714.53;1787704;78;21048;-59
2021/08/09 07:09:52;;;;;;;7.92;1.75;;;;;;;23.96;54.93;99713.05;1742926;79;23081;-62
2021/08/09 07:12:18;;;;;;;1.92;1.15;;;;;;;24.02;54.84;99712.91;1783929;78;21570;-63
2021/08/09 07:14:45;;;;;;;6.67;1.55;;;;;;;24.07;55.20;99722.39;1787660;78;21096;-60
2021/08/09 07:17:12;;;;;;;3.45;2.25;;;;;;;24.15;54.81;99727.11;1748687;79;21138;-66
2021/08/09 07:19:41;;;;;;;4.65;1.70;;;;;;;24.22;53.91;99724.61;1750631;79;21035;-66
2021/08/09 07:22:07;;;;;;;9.20;1.30;;;;;;;24.29;54.01;99721.55;1783427;78;21101;-63
2021/08/09 07:24:36;;;;;;;6.10;1.45;;;;;;;24.36;54.47;99716.62;1752994;79;21106;-62
2021/08/09 07:27:03;;;;;;;5.95;1.72;;;;;;;24.45;54.87;99712.02;1762165;80;21042;-63
2021/08/09 07:29:31;;;;;;;5.90;1.98;;;;;;;24.55;54.41;99721.54;1787829;78;20893;-60
2021/08/09 07:31:58;;;;;;;6.92;1.92;;;;;;;24.61;52.63;99720.36;1771603;79;20981;-64
2021/08/09 07:34:25;;;;;;;7.00;1.40;;;;;;;24.68;52.49;99711.80;1772342;79;21142;-66
2021/08/09 07:36:51;;;;;;;6.00;1.65;;;;;;;24.74;51.46;99712.53;1773742;80;21042;-58
2021/08/09 07:39:17;;;;;;;3.22;1.20;;;;;;;24.80;51.44;99707.73;1787951;79;21067;-66
2021/08/09 07:41:44;;;;;;;8.88;1.92;;;;;;;24.86;51.44;99712.56;1789433;78;21410;-58
2021/08/09 07:44:10;;;;;;;6.08;1.80;;;;;;;24.93;50.88;99713.30;1750061;80;21573;-59
2021/08/09 07:46:37;;;;;;;4.87;1.50;;;;;;;24.99;50.61;99715.41;1728303;80;21503;-59
2021/08/09 07:49:04;;;;;;;5.35;1.42;;;;;;;25.05;50.71;99715.59;1768334;80;21135;-64
2021/08/09 07:51:31;;;;;;;8.75;1.65;;;;;;;25.12;50.72;99721.30;1769541;80;21021;-63
2021/08/09 07:53:58;;;;;;;3.60;1.20;;;;;;;25.18;50.13;99717.86;1763053;80;21089;-65
2021/08/09 07:56:24;;;;;;;3.72;1.22;;;;;;;25.23;49.97;99714.97;1767535;80;21122;-62
2021/08/09 07:58:52;;;;;;;6.80;1.30;;;;;;;25.31;50.60;99718.77;1773042;80;21158;-62
2021/08/09 08:01:19;;;;;;;5.37;1.10;;;;;;;25.36;50.20;99716.35;1769814;80;21081;-58
2021/08/09 08:03:45;;;;;;;6.60;1.27;;;;;;;25.41;50.00;99724.48;1769263;79;21049;-57
2021/08/09 08:06:12;;;;;;;5.95;1.62;;;;;;;25.46;50.40;99730.33;1770241;80;21053;-57
2021/08/09 08:08:39;;;;;;;3.20;1.55;;;;;;;25.51;49.74;99719.68;1771221;80;21062;-54
2021/08/09 08:11:07;;;;;;;6.65;1.70;;;;;;;25.58;50.21;99728.13;1772763;80;20996;-57
2021/08/09 08:13:36;;;;;;;7.08;1.52;;;;;;;25.66;50.27;99731.44;1770351;80;20905;-59
2021/08/09 08:16:05;;;;;;;4.67;1.00;;;;;;;25.74;49.76;99736.95;1768364;80;20931;-56
2021/08/09 08:18:31;;;;;;;1.62;0.80;;;;;;;25.85;49.93;99735.25;1772520;80;20926;-58
2021/08/09 08:20:58;;;;;;;4.10;0.80;;;;;;;25.92;48.31;99728.86;1772095;80;20887;-60
2021/08/09 08:23:25;;;;;;;2.65;0.72;;;;;;;25.98;46.66;99732.81;1769866;80;21078;-57
2021/08/09 08:25:52;;;;;;;2.92;0.70;;;;;;;26.00;45.11;99731.62;1739158;80;20993;-56
2021/08/09 08:28:20;;;;;;;3.55;0.68;;;;;;;26.03;45.38;99729.02;1762712;80;20918;-56
2021/08/09 08:30:49;;;;;;;1.98;0.60;;;;;;;26.08;46.41;99731.27;1742720;80;21701;-56
2021/08/09 08:33:16;;;;;;;0.78;0.60;;;;;;;26.13;44.31;99734.35;1739624;80;21309;-58
2021/08/09 08:35:42;;;;;;;5.37;0.60;;;;;;;26.14;44.27;99732.80;1768199;78;21541;-57
2021/08/09 08:38:09;;;;;;;0.70;0.60;;;;;;;26.18;43.94;99734.20;1747497;80;21919;-58
2021/08/09 08:40:40;;;;;;;0.70;0.70;;;;;;;26.21;42.88;99734.34;1762747;78;21579;-58
2021/08/09 08:43:10;;;;;;;6.78;0.50;;;;;;;26.23;42.48;99731.76;1776529;79;21509;-58
2021/08/09 08:45:37;;;;;;;1.82;0.50;;;;;;;26.28;42.33;99733.53;1762278;78;21074;-56
2021/08/09 08:48:04;;;;;;;1.92;0.60;;;;;;;26.33;43.00;99733.86;1764706;78;22114;-56
2021/08/09 08:50:31;;;;;;;1.15;0.60;;;;;;;26.39;42.51;99729.52;1741302;80;21039;-56
2021/08/09 08:52:57;;;;;;;1.45;0.82;;;;;;;26.45;41.66;99722.45;1742540;80;21343;-58
2021/08/09 08:55:25;;;;;;;2.45;0.65;;;;;;;26.48;42.04;99721.56;1777498;79;21088;-56
2021/08/09 08:57:52;;;;;;;4.22;0.70;;;;;;;26.53;41.92;99727.44;1768854;78;21467;-57
2021/08/09 09:00:18;;;;;;;3.33;0.70;;;;;;;26.58;41.79;99735.17;1733254;80;21670;-58
2021/08/09 09:02:44;;;;;;;3.25;0.60;;;;;;;26.62;41.72;99729.14;1750055;80;22403;-56
2021/08/09 09:05:14;;;;;;;3.40;0.60;;;;;;;26.65;41.22;99734.29;1766278;78;21042;-57
2021/08/09 09:07:48;;;;;;;1.00;0.68;;;;;;;26.70;41.92;99743.44;1737699;80;21377;-58
2021/08/09 09:10:27;;;;;;;1.45;0.60;;;;;;;26.75;41.87;99736.84;1762113;80;21542;-57
2021/08/09 09:13:15;;;;;;;1.92;0.93;;;;;;;26.82;42.49;99748.03;1755192;81;21054;-57
2021/08/09 09:15:58;;;;;;;3.90;0.85;;;;;;;26.88;42.98;99751.48;1736913;80;20997;-56
2021/08/09 09:18:29;;;;;;;2.85;0.78;;;;;;;26.92;44.09;99755.63;1751021;80;21100;-56
2021/08/09 09:20:55;;;;;;;4.50;0.80;;;;;;;26.96;42.92;99757.02;1744570;80;21038;-55
2021/08/09 09:23:23;;;;;;;1.07;0.60;;;;;;;27.01;42.45;99753.19;1778073;79;21387;-59
2021/08/09 09:25:50;;;;;;;1.07;0.98;;;;;;;27.08;42.15;99745.89;1778927;79;21106;-58
2021/08/09 09:28:29;;;;;;;3.20;0.60;;;;;;;27.14;43.33;99753.45;1766338;80;20951;-58
2021/08/09 09:31:12;;;;;;;1.82;0.90;;;;;;;27.22;42.87;99767.23;1740274;80;21369;-56
2021/08/09 09:33:25;;;;;;;1.90;0.60;;;;;;;27.28;42.78;99751.84;1733209;80;21048;-58
2021/08/09 09:35:53;;;;;;;1.15;0.70;;;;;;;27.33;42.84;99736.95;1736952;80;21135;-55
2021/08/09 09:38:19;;;;;;;0.80;0.60;;;;;;;27.38;42.33;99741.44;1760498;80;23317;-55
2021/08/09 09:40:46;;;;;;;0.90;0.60;;;;;;;27.42;42.42;99735.86;1738819;80;21561;-54
2021/08/09 09:43:20;;;;;;;0.62;0.62;;;;;;;27.48;42.48;99725.45;1764147;78;21132;-56
2021/08/09 09:45:53;;;;;;;;;;;;;;;27.51;40.83;99720.95;1771158;78;20934;-55
2021/08/09 09:48:34;;;;;;;0.70;0.50;;;;;;;27.53;41.10;99724.40;1768763;78;20179;-54
2021/08/09 09:51:16;;;;;;;1.07;0.75;;;;;;;27.52;39.72;99730.97;1728984;80;21472;-55
2021/08/09 09:53:44;;;;;;;0.90;0.60;;;;;;;27.51;40.07;99743.06;1718405;80;21029;-54
2021/08/09 09:56:10;;;;;;;1.02;0.60;;;;;;;27.53;40.43;99738.22;1735030;80;20948;-53
2021/08/09 09:58:38;;;;;;;0.88;0.60;;;;;;;27.56;40.37;99743.95;1729037;80;21520;-53
2021/08/09 10:01:07;;;;;;;0.70;0.57;;;;;;;27.54;37.91;99739.98;1730945;80;21050;-56
2021/08/09 10:03:35;;;;;;;1.40;0.68;;;;;;;27.51;39.06;99730.62;1726996;80;21358;-54
2021/08/09 10:06:02;;;;;;;0.75;0.60;;;;;;;27.52;40.33;99727.34;1725603;80;21591;-55
2021/08/09 10:08:33;;;;;;;1.77;0.70;;;;;;;27.55;40.09;99725.12;1722129;80;21099;-55
2021/08/09 10:11:02;;;;;;;0.93;0.50;;;;;;;27.61;40.14;99728.52;1728550;80;21627;-55
2021/08/09 10:13:29;;;;;;;1.75;0.50;;;;;;;27.67;40.28;99727.78;1728469;80;21111;-56
2021/08/09 10:16:04;;;;;;;1.27;0.50;;;;;;;27.73;40.63;99735.33;1683651;80;21208;-55
2021/08/09 10:18:36;;;;;;;1.55;0.50;;;;;;;27.77;40.37;99733.06;1732692;80;21079;-56
2021/08/09 10:21:04;;;;;;;5.87;0.60;;;;;;;27.79;40.42;99724.93;1727623;80;21150;-56
2021/08/09 10:23:46;;;;;;;5.47;0.78;;;;;;;27.81;40.08;99713.17;1725746;80;21090;-56
2021/08/09 10:26:30;;;;;;;0.50;0.50;;;;;;;27.85;39.74;99715.88;1725644;80;21139;-55
2021/08/09 10:29:07;;;;;;;;;;;;;;;27.88;39.44;99709.65;1730310;80;21556;-57
2021/08/09 10:31:40;;;;;;;0.85;0.50;;;;;;;27.92;39.82;99702.69;1731283;80;20249;-55
2021/08/09 10:34:12;;;;;;;0.60;0.50;;;;;;;27.96;40.38;99696.61;1723545;80;20971;-56
2021/08/09 10:37:10;;;;;;;0.50;0.50;;;;;;;27.98;39.50;99690.89;1700110;80;22123;-53
2021/08/09 10:39:58;;;;;;;1.15;0.47;;;;;;;27.99;39.33;99706.42;1730341;80;21470;-55
2021/08/09 10:42:40;;;;;;;0.60;0.50;;;;;;;28.00;39.15;99700.70;1726421;80;21573;-56
2021/08/09 10:45:12;;;;;;;0.82;0.60;;;;;;;28.04;38.94;99688.75;1728553;80;21232;-54
2021/08/09 10:47:56;;;;;;;1.70;0.50;;;;;;;28.09;38.63;99682.12;1729800;80;21059;-56
2021/08/09 10:50:28;;;;;;;2.20;0.40;;;;;;;28.12;38.92;99680.37;1757344;79;21013;-54
2021/08/09 10:52:54;;;;;;;1.17;0.50;;;;;;;28.15;39.04;99687.79;1742294;80;21467;-56
2021/08/09 10:55:36;;;;;;;0.60;0.50;;;;;;;28.18;38.05;99690.71;1736080;80;21067;-55
2021/08/09 10:58:03;;;;;;;0.50;0.50;;;;;;;28.20;38.69;99683.95;1767796;78;21483;-55
2021/08/09 11:00:51;;;;;;;0.57;0.47;;;;;;;28.23;37.15;99678.05;1764358;78;21100;-56
2021/08/09 11:03:20;;;;;;;1.25;0.50;;;;;;;28.22;36.36;99686.53;1764106;78;21026;-57
2021/08/09 11:05:46;;;;;;;2.10;0.50;;;;;;;28.20;36.98;99677.03;1760878;78;21074;-55
2021/08/09 11:08:20;;;;;;;0.40;0.40;;;;;;;28.19;37.23;99673.06;1764779;78;21447;-55
2021/08/09 11:10:59;;;;;;;0.60;0.50;;;;;;;28.19;37.50;99660.61;1767687;78;21677;-56
2021/08/09 11:13:29;;;;;;;0.55;0.47;;;;;;;28.21;37.46;99654.38;1765327;78;20910;-56
2021/08/09 11:16:04;;;;;;;0.50;0.50;;;;;;;28.24;37.85;99663.13;1765757;78;21034;-53
2021/08/09 11:18:30;;;;;;;;;;;;;;;28.29;37.56;99657.57;1771643;78;20958;-54
2021/08/09 11:21:10;;;;;;;1.02;0.53;;;;;;;28.31;37.47;99647.17;1765419;78;21770;-54
2021/08/09 11:23:41;;;;;;;0.80;0.57;;;;;;;28.32;38.38;99647.52;1769956;78;21652;-55
2021/08/09 11:26:17;;;;;;;0.60;0.60;;;;;;;28.33;37.65;99645.91;1774143;78;20899;-55
2021/08/09 11:29:03;;;;;;;0.60;0.50;;;;;;;28.36;37.91;99646.92;1764834;78;21737;-55
2021/08/09 11:31:44;;;;;;;0.50;0.50;;;;;;;28.37;39.32;99645.88;1766654;78;21041;-56
2021/08/09 11:34:11;;;;;;;1.07;0.50;;;;;;;28.39;38.56;99643.79;1766630;78;22415;-58
2021/08/09 11:36:38;;;;;;;2.35;0.70;;;;;;;28.43;38.45;99652.03;1770230;78;20907;-58
2021/08/09 11:39:04;;;;;;;0.95;0.50;;;;;;;28.46;37.50;99642.49;1767404;78;21069;-58
2021/08/09 11:41:32;;;;;;;0.93;0.50;;;;;;;28.47;37.42;99634.00;1745046;78;21136;-57
2021/08/09 11:44:10;;;;;;;0.98;0.50;;;;;;;28.51;37.42;99631.69;1764340;78;21077;-56
2021/08/09 11:46:47;;;;;;;0.50;0.50;;;;;;;28.53;37.02;99639.29;1739047;78;20939;-59
2021/08/09 11:49:13;;;;;;;2.35;0.50;;;;;;;28.52;37.33;99625.97;1763266;78;21036;-55